createdAt,value
2022-12-19T00:07:31.455Z,-6.16
2022-12-19T00:12:46.587Z,-6.21
2022-12-19T00:18:35.015Z,-6.29
2022-12-19T00:23:46.164Z,-6.37
2022-12-19T00:28:57.617Z,-6.42
2022-12-19T00:34:03.358Z,-6.40
2022-12-19T00:39:08.824Z,-6.35
2022-12-19T00:51:09.646Z,-6.38
2022-12-19T00:56:17.405Z,-6.43
2022-12-19T01:01:38.061Z,-6.53
2022-12-19T01:06:43.242Z,-6.59
2022-12-19T01:12:30.842Z,-6.72
2022-12-19T01:17:43.497Z,-6.91
2022-12-19T01:22:58.544Z,-6.99
2022-12-19T01:28:32.239Z,-7.07
2022-12-19T01:34:42.626Z,-7.13
2022-12-19T01:53:51.365Z,-7.30
2022-12-19T02:05:54.854Z,-7.58
2022-12-19T02:11:06.417Z,-7.59
2022-12-19T02:22:35.890Z,-7.55
2022-12-19T02:47:13.663Z,-7.20
2022-12-19T02:53:30.497Z,-7.29
2022-12-19T02:59:02.792Z,-7.48
2022-12-19T03:09:12.804Z,-7.64
2022-12-19T03:20:54.248Z,-7.70
2022-12-19T03:26:29.257Z,-7.66
2022-12-19T03:31:35.074Z,-7.64
2022-12-19T03:36:43.319Z,-7.62
2022-12-19T03:42:06.732Z,-7.62
2022-12-19T03:47:17.735Z,-7.55
2022-12-19T03:52:54.182Z,-7.52
2022-12-19T03:58:06.531Z,-7.61
2022-12-19T04:03:10.316Z,-5.97
2022-12-19T04:08:14.406Z,-4.94
2022-12-19T04:13:23.560Z,-5.86
2022-12-19T04:18:28.020Z,-6.45
2022-12-19T04:23:41.643Z,-6.88
2022-12-19T04:28:52.982Z,-7.02
2022-12-19T04:33:56.277Z,-7.26
2022-12-19T04:38:59.641Z,-7.52
2022-12-19T04:44:03.094Z,-7.61
2022-12-19T04:49:06.540Z,-7.76
2022-12-19T04:54:09.925Z,-7.80
2022-12-19T04:59:13.720Z,-7.79
2022-12-19T05:04:17.059Z,-7.83
2022-12-19T05:09:20.599Z,-7.73
2022-12-19T05:14:23.968Z,-7.90
2022-12-19T05:19:27.422Z,-8.13
2022-12-19T05:24:30.906Z,-8.29
2022-12-19T05:29:35.050Z,-8.48
2022-12-19T05:34:38.279Z,-8.55
2022-12-19T05:39:41.640Z,-8.61
2022-12-19T05:44:44.981Z,-8.62
2022-12-19T05:49:48.256Z,-8.63
2022-12-19T05:54:51.914Z,-8.55
2022-12-19T06:00:00.226Z,-8.48
2022-12-19T06:05:04.092Z,-8.47
2022-12-19T06:10:10.007Z,-8.54
2022-12-19T06:15:13.943Z,-8.70
2022-12-19T06:20:18.194Z,-8.86
2022-12-19T06:25:21.455Z,-8.99
2022-12-19T06:30:24.812Z,-8.97
2022-12-19T06:35:28.386Z,-8.89
2022-12-19T06:40:50.359Z,-8.86
2022-12-19T06:45:53.843Z,-8.84
2022-12-19T06:50:57.241Z,-8.80
2022-12-19T06:56:01.107Z,-8.77
2022-12-19T07:01:04.791Z,-8.76
2022-12-19T07:06:15.430Z,-8.83
2022-12-19T07:11:19.029Z,-8.90
2022-12-19T07:16:25.304Z,-9.00
2022-12-19T07:21:29.762Z,-9.06
2022-12-19T07:26:33.753Z,-9.07
2022-12-19T07:31:40.287Z,-9.06
2022-12-19T07:36:44.138Z,-9.04
2022-12-19T07:41:47.899Z,-8.99
2022-12-19T07:46:57.660Z,-8.86
2022-12-19T07:52:01.064Z,-8.73
2022-12-19T07:57:05.347Z,-8.67
2022-12-19T08:02:18.084Z,-8.64
2022-12-19T08:07:22.051Z,-8.54
2022-12-19T08:12:25.335Z,-8.49
2022-12-19T08:17:28.769Z,-8.41
2022-12-19T08:22:32.270Z,-8.31
2022-12-19T08:27:35.843Z,-8.15
2022-12-19T08:32:39.034Z,-7.95
2022-12-19T08:37:42.411Z,-7.75
2022-12-19T08:42:46.109Z,-7.66
2022-12-19T08:47:49.884Z,-7.67
2022-12-19T08:52:53.360Z,-7.65
2022-12-19T08:57:56.855Z,-7.61
2022-12-19T09:03:00.272Z,-7.60
2022-12-19T09:08:04.340Z,-7.59
2022-12-19T09:13:08.978Z,-7.57
2022-12-19T09:18:12.459Z,-7.49
2022-12-19T09:23:15.801Z,-7.36
2022-12-19T09:28:27.398Z,-7.10
2022-12-19T09:33:37.997Z,-6.86
2022-12-19T09:38:45.339Z,-6.63
2022-12-19T09:43:51.151Z,-6.43
2022-12-19T09:48:56.397Z,-6.33
2022-12-19T09:54:33.392Z,-6.23
2022-12-19T09:59:50.278Z,-6.11
2022-12-19T10:05:13.841Z,-5.98
2022-12-19T10:12:38.372Z,-5.79
2022-12-19T10:16:05.599Z,-5.55
2022-12-19T10:22:15.718Z,-5.30
2022-12-19T10:27:16.395Z,-5.10
2022-12-19T10:32:22.569Z,-4.57
2022-12-19T10:37:37.650Z,-4.53
2022-12-19T10:42:51.407Z,-4.61
2022-12-19T10:47:58.797Z,-4.64
2022-12-19T10:58:46.824Z,-4.63
2022-12-19T11:03:56.634Z,-4.62
2022-12-19T11:09:21.795Z,-4.64
2022-12-19T11:17:41.567Z,-4.62
2022-12-19T11:28:58.442Z,-4.59
2022-12-19T11:29:46.779Z,-4.52
2022-12-19T11:48:50.152Z,-4.31
2022-12-19T11:54:24.415Z,-4.26
2022-12-19T11:59:35.828Z,-4.22
2022-12-19T12:05:23.303Z,-4.14
2022-12-19T12:15:26.904Z,-4.02
2022-12-19T12:30:11.680Z,-3.78
2022-12-19T12:31:05.950Z,-3.73
2022-12-19T12:31:43.768Z,-3.78
2022-12-19T12:35:56.946Z,-3.83
2022-12-19T12:38:52.117Z,-3.81
2022-12-19T12:44:08.599Z,-3.74
2022-12-19T12:49:52.889Z,-3.68
2022-12-19T12:55:01.300Z,-3.62
2022-12-19T13:00:21.874Z,-3.60
2022-12-19T13:05:46.195Z,-3.53
2022-12-19T13:10:58.272Z,-3.61
2022-12-19T13:16:42.824Z,-3.69
2022-12-19T13:22:04.510Z,-3.69
2022-12-19T13:27:19.778Z,-3.72
2022-12-19T13:32:32.806Z,-3.77
2022-12-19T13:39:57.712Z,-3.69
2022-12-19T13:43:29.815Z,-3.66
2022-12-19T13:49:00.777Z,-3.73
2022-12-19T13:54:04.742Z,-3.78
2022-12-19T13:59:10.084Z,-3.81
2022-12-19T14:04:24.744Z,-3.84
2022-12-19T14:11:31.757Z,-3.88
2022-12-19T14:15:32.651Z,-3.96
2022-12-19T14:22:11.469Z,-4.05
2022-12-19T14:28:20.123Z,-4.12
2022-12-19T14:33:40.659Z,-4.22
2022-12-19T14:39:20.406Z,-4.27
2022-12-19T14:43:59.897Z,-4.37
2022-12-19T14:54:12.028Z,-4.49
2022-12-19T14:59:56.698Z,-4.64
2022-12-19T15:05:14.360Z,-4.72
2022-12-19T15:11:07.284Z,-4.81
2022-12-19T15:16:01.501Z,-4.88
2022-12-19T15:21:13.700Z,-4.94
2022-12-19T15:26:26.522Z,-4.98
2022-12-19T15:31:39.310Z,-5.04
2022-12-19T15:36:43.500Z,-5.14
2022-12-19T15:41:55.591Z,-5.24
2022-12-19T15:47:05.486Z,-5.32
2022-12-19T15:52:19.099Z,-5.39
2022-12-19T15:57:39.970Z,-5.46
2022-12-19T16:08:15.697Z,-5.60
2022-12-19T16:13:32.102Z,-5.67
2022-12-19T16:18:36.861Z,-5.72
2022-12-19T16:23:43.936Z,-5.76
2022-12-19T16:28:48.142Z,-5.80
2022-12-19T16:33:52.732Z,-5.84
2022-12-19T16:38:59.259Z,-5.85
2022-12-19T16:44:21.469Z,-5.88
2022-12-19T16:49:25.856Z,-5.89
2022-12-19T16:55:30.229Z,-5.99
2022-12-19T17:00:18.413Z,-6.02
2022-12-19T17:06:16.957Z,-6.07
2022-12-19T17:11:11.926Z,-6.02
2022-12-19T17:16:41.896Z,-5.93
2022-12-19T17:21:59.226Z,-6.02
2022-12-19T17:27:06.926Z,-6.13
2022-12-19T17:32:23.733Z,-6.24
2022-12-19T17:37:28.918Z,-6.30
2022-12-19T17:42:40.211Z,-6.29
2022-12-19T17:47:48.119Z,-6.15
2022-12-19T17:52:52.151Z,-6.02
2022-12-19T17:58:02.749Z,-6.01
2022-12-19T18:03:25.061Z,-6.07
2022-12-19T18:08:35.894Z,-6.13
2022-12-19T18:13:39.813Z,-6.09
2022-12-19T18:18:45.179Z,-6.06
2022-12-19T18:23:49.457Z,-6.13
2022-12-19T18:28:54.746Z,-6.23
2022-12-19T18:34:07.302Z,-6.23
2022-12-19T18:39:25.094Z,-6.09
2022-12-19T18:44:28.840Z,-6.03
2022-12-19T18:49:36.949Z,-5.95
2022-12-19T18:54:40.818Z,-6.05
2022-12-19T18:59:47.629Z,-6.14
2022-12-19T19:04:51.743Z,-6.18
2022-12-19T19:09:55.627Z,-6.21
2022-12-19T19:15:23.103Z,-6.21
2022-12-19T19:20:29.637Z,-6.00
2022-12-19T19:25:35.439Z,-5.80
2022-12-19T19:31:00.805Z,-5.95
2022-12-19T19:36:13.049Z,-6.02
2022-12-19T19:41:17.076Z,-5.90
2022-12-19T19:46:22.633Z,-5.89
2022-12-19T19:51:29.241Z,-5.92
2022-12-19T19:56:42.581Z,-5.91
2022-12-19T20:01:46.482Z,-5.48
2022-12-19T20:06:53.948Z,-5.26
2022-12-19T20:11:57.926Z,-5.38
2022-12-19T20:17:01.804Z,-5.40
2022-12-19T20:22:06.684Z,-5.38
2022-12-19T20:27:13.908Z,-5.36
2022-12-19T20:32:17.779Z,-5.35
2022-12-19T20:37:20.947Z,-5.33
2022-12-19T20:42:25.179Z,-5.26
2022-12-19T20:47:28.840Z,-5.18
2022-12-19T20:52:34.845Z,-5.11
2022-12-19T20:57:39.040Z,-5.05
2022-12-19T21:03:25.068Z,-5.04
2022-12-19T21:08:07.308Z,-4.98
2022-12-19T21:13:10.382Z,-4.89
2022-12-19T21:18:13.485Z,-4.78
2022-12-19T21:23:16.832Z,-4.66
2022-12-19T21:28:21.685Z,-4.53
2022-12-19T21:33:25.758Z,-4.38
2022-12-19T21:38:28.970Z,-4.29
2022-12-19T21:43:36.820Z,-4.17
2022-12-19T21:48:42.715Z,-4.02
2022-12-19T21:53:46.604Z,-3.87
2022-12-19T21:58:55.857Z,-3.74
2022-12-19T22:04:01.298Z,-3.66
2022-12-19T22:09:07.374Z,-3.60
2022-12-19T22:14:14.902Z,-3.56
2022-12-19T22:19:19.190Z,-3.47
2022-12-19T22:24:22.837Z,-3.41
2022-12-19T22:29:26.035Z,-3.32
2022-12-19T22:34:29.723Z,-3.23
2022-12-19T22:39:33.068Z,-3.14
2022-12-19T22:44:36.436Z,-3.00
2022-12-19T22:49:39.597Z,-2.94
2022-12-19T22:54:43.003Z,-2.87
2022-12-19T22:59:46.172Z,-2.81
2022-12-19T23:04:49.412Z,-2.76
2022-12-19T23:09:52.676Z,-2.65
2022-12-19T23:14:55.926Z,-2.56
2022-12-19T23:19:59.271Z,-2.51
2022-12-19T23:25:02.498Z,-2.43
2022-12-19T23:30:06.380Z,-2.36
2022-12-19T23:35:10.711Z,-2.30
2022-12-19T23:40:16.176Z,-2.26
2022-12-19T23:45:23.124Z,-2.22
2022-12-19T23:50:31.302Z,-2.16
2022-12-19T23:55:50.481Z,-2.13
